Latest Weather Observations for Tatura

IDV60801

Issued at 7:35 pm EST Thursday 24 April 2014 (issued every 30 minutes, with the page automatically refreshed every 10 minutes)

About weather observations | Map of weather stations | Latest weather observations for VIC | Other Formats
Station Details ID: 081049 Name: TATURA INST SUSTAINABLE AG Lat: -36.44 Lon: 145.27 Height: 114.0 m
Data from the previous 72 hours. | See also: Recent months at Tatura
Date/Time
EST
Temp
°C
App
Temp
°C
Dew
Point
Rel
Hum
%
Delta-T
°C
Wind Press
QNH
hPa
Press
MSL
hPa
Rain
since 9 am
mm
Dir
 
Spd
km/h
Gust
km/h
Spd
kts
Gust
kts
24/07:30pm 10.3 7.1 3.1 61 3.1 SSE 9 15 5 8 - - 0.0
24/07:00pm 10.9 7.7 3.2 59 3.4 SSE 9 11 5 6 - - 0.0
24/06:30pm 11.5 8.3 3.0 56 3.7 SSE 9 11 5 6 - - 0.0
24/06:00pm 12.5 8.9 2.9 52 4.2 SSE 11 15 6 8 - - 0.0
24/05:30pm 14.0 10.2 3.8 50 4.7 SSE 13 15 7 8 - - 0.0
24/05:00pm 15.5 10.9 3.6 45 5.5 SSE 17 24 9 13 - - 0.0
24/04:30pm 16.6 12.3 5.3 47 5.4 SSE 17 24 9 13 - - 0.0
24/04:00pm 17.4 13.1 5.4 45 5.8 SSE 17 22 9 12 - - 0.0
24/03:30pm 17.8 13.7 6.3 47 5.7 SSE 17 24 9 13 - - 0.0
24/03:00pm 17.4 14.5 6.3 48 5.5 SSE 11 17 6 9 - - 0.0
24/02:30pm 18.4 15.2 6.9 47 5.8 SSW 13 20 7 11 - - 0.0
24/02:00pm 17.7 13.4 7.2 50 5.3 SSE 19 30 10 16 - - 0.0
24/01:30pm 17.4 13.3 8.0 54 4.8 SSE 19 24 10 13 - - 0.0
24/01:00pm 17.5 14.1 9.2 58 4.3 SSE 17 24 9 13 - - 0.0
24/12:30pm 16.5 12.5 8.2 58 4.2 SSE 19 24 10 13 - - 0.0
24/12:00pm 17.2 13.4 9.1 59 4.2 S 19 28 10 15 - - 0.0
24/11:30am 17.0 13.1 9.4 61 4.0 SW 20 30 11 16 - - 0.0
24/11:00am 16.5 12.7 9.2 62 3.8 SW 19 26 10 14 - - 0.0
24/10:30am 16.9 13.5 9.1 60 4.1 W 17 22 9 12 - - 0.0
24/10:00am 16.6 13.9 8.8 60 4.0 WNW 13 19 7 10 - - 0.0
24/09:30am 14.8 11.4 6.1 56 4.2 NW 13 17 7 9 - - 0.0
24/09:00am 13.1 10.8 7.5 69 2.8 NW 9 13 5 7 - - 0.0
24/08:30am 10.5 9.0 9.1 91 0.7 N 7 9 4 5 - - 0.0
24/08:00am 8.3 7.7 7.2 93 0.5 CALM 0 0 0 0 - - 0.0
24/07:30am 5.6 4.4 4.4 92 0.5 CALM 0 0 0 0 - - 0.0
24/07:00am 4.4 2.9 3.2 92 0.5 CALM 0 0 0 0 - - 0.0
24/06:30am 4.1 2.6 2.9 92 0.5 CALM 0 0 0 0 - - 0.0
24/06:00am 3.9 2.3 2.6 91 0.5 CALM 0 0 0 0 - - 0.0
24/05:30am 4.3 2.8 3.1 92 0.5 CALM 0 0 0 0 - - 0.0
24/05:00am 4.7 3.3 3.4 91 0.5 CALM 0 0 0 0 - - 0.0
24/04:30am 5.0 3.6 3.7 91 0.5 CALM 0 0 0 0 - - 0.0
24/04:00am 5.2 3.9 3.9 91 0.6 CALM 0 6 0 3 - - 0.0
24/03:30am 5.7 4.4 4.3 91 0.6 CALM 0 0 0 0 - - 0.0
24/03:00am 5.6 4.3 4.2 91 0.6 CALM 0 0 0 0 - - 0.0
24/02:30am 5.4 4.1 3.9 90 0.6 CALM 0 0 0 0 - - 0.0
24/02:00am 6.1 4.9 4.7 91 0.6 CALM 0 0 0 0 - - 0.0
24/01:30am 6.1 4.9 4.6 90 0.7 CALM 0 0 0 0 - - 0.0
24/01:00am 6.2 5.0 4.7 90 0.7 CALM 0 0 0 0 - - 0.0
24/12:30am 6.7 4.5 5.2 90 0.7 ENE 6 9 3 5 - - 0.0
24/12:00am 7.0 6.0 5.5 90 0.7 NNE 0 0 0 0 - - 0.0
 
Date/Time
EST
Temp
°C
App
Temp
°C
Dew
Point
Rel
Hum
%
Delta-T
°C
Wind Press
QNH
hPa
Press
MSL
hPa
Rain
since 9 am
mm
Dir
 
Spd
km/h
Gust
km/h
Spd
kts
Gust
kts
23/11:30pm 7.4 6.4 5.7 89 0.8 CALM 0 0 0 0 - - 0.0
23/11:00pm 7.6 6.7 6.1 90 0.7 CALM 0 0 0 0 - - 0.0
23/10:30pm 7.8 6.9 6.1 89 0.8 CALM 0 0 0 0 - - 0.0
23/10:00pm 8.1 7.3 6.4 89 0.8 CALM 0 0 0 0 - - 0.0
23/09:30pm 8.0 7.1 6.1 88 0.9 CALM 0 0 0 0 - - 0.0
23/09:00pm 8.2 7.3 6.0 86 1.0 CALM 0 0 0 0 - - 0.0
23/08:30pm 9.0 8.2 6.6 85 1.1 CALM 0 0 0 0 - - 0.0
23/08:00pm 9.8 9.1 7.1 83 1.3 CALM 0 0 0 0 - - 0.0
23/07:30pm 10.8 10.2 7.3 79 1.7 CALM 0 0 0 0 - - 0.0
23/07:00pm 11.4 10.7 7.1 75 2.1 CALM 0 0 0 0 - - 0.0
23/06:30pm 12.3 11.6 6.8 69 2.6 CALM 0 0 0 0 - - 0.0
23/06:00pm 14.1 12.0 6.7 61 3.6 WNW 7 9 4 5 - - 0.0
23/05:30pm 16.3 13.9 7.0 54 4.6 WNW 9 11 5 6 - - 0.0
23/05:00pm 17.3 14.5 7.1 51 5.1 WNW 11 13 6 7 - - 0.0
23/04:30pm 18.0 15.1 6.5 47 5.7 WNW 11 15 6 8 - - 0.0
23/04:00pm 18.5 15.3 6.7 46 5.9 W 13 17 7 9 - - 0.0
23/03:30pm 19.1 15.8 6.2 43 6.4 WNW 13 17 7 9 - - 0.0
23/03:00pm 19.6 16.7 6.3 42 6.7 WNW 11 17 6 9 - - 0.0
23/02:30pm 20.3 17.1 7.0 42 6.8 WNW 13 20 7 11 - - 0.0
23/02:00pm 19.7 15.9 5.7 40 6.9 W 15 20 8 11 - - 0.0
23/01:30pm 19.8 16.2 6.9 43 6.6 W 15 22 8 12 - - 0.0
23/01:00pm 19.6 16.7 8.3 48 5.9 WSW 13 22 7 12 - - 0.0
23/12:30pm 18.7 16.5 9.2 54 5.0 SSW 11 17 6 9 - - 0.0
23/12:00pm 18.3 15.6 9.1 55 4.8 SW 13 19 7 10 - - 0.0
23/11:30am 18.2 16.9 11.3 64 3.8 SSW 9 19 5 10 - - 0.0
23/11:00am 17.4 16.5 11.4 68 3.3 S 7 11 4 6 - - 0.0
23/10:30am 16.6 15.6 11.1 70 3.0 SW 7 11 4 6 - - 0.0
23/10:00am 15.5 15.0 10.7 73 2.6 SSE 4 9 2 5 - - 0.0
23/09:30am 14.3 12.8 10.5 78 2.0 SSE 9 13 5 7 - - 0.0
23/09:00am 13.3 11.4 10.5 83 1.5 SSE 11 15 6 8 - - 0.4
23/08:30am 12.0 9.9 9.9 87 1.1 SSE 11 15 6 8 - - -
23/08:00am 10.5 9.2 9.3 92 0.6 SSE 6 7 3 4 - - -
23/07:30am 8.9 7.0 7.7 92 0.6 S 7 7 4 4 - - -
23/07:00am 8.6 6.6 7.2 91 0.7 SSE 7 9 4 5 - - -
23/06:30am 9.3 7.5 7.9 91 0.7 SSE 7 9 4 5 - - -
23/06:00am 9.7 7.6 8.1 90 0.8 SSE 9 9 5 5 - - -
23/05:30am 10.1 8.1 8.7 91 0.7 SSE 9 11 5 6 - - -
23/05:00am 10.5 8.2 9.1 91 0.7 S 11 13 6 7 - - -
23/04:30am 10.3 8.4 8.9 91 0.7 S 9 11 5 6 - - -
23/04:00am 10.6 9.1 9.0 90 0.8 S 7 9 4 5 - - -
23/03:30am 11.0 9.2 9.4 90 0.8 SSE 9 11 5 6 - - -
23/03:00am 11.2 9.1 9.6 90 0.8 SSE 11 13 6 7 - - -
23/02:30am 11.5 9.4 9.9 90 0.8 SSE 11 15 6 8 - - -
23/02:00am 11.5 9.8 9.8 89 0.9 SSE 9 13 5 7 - - -
23/01:30am 12.0 10.0 10.1 88 1.0 SSE 11 15 6 8 - - -
23/01:00am 12.1 10.1 10.0 87 1.1 SSE 11 13 6 7 - - -
23/12:30am 12.4 10.8 10.1 86 1.2 SSE 9 15 5 8 - - -
23/12:00am 13.0 11.1 10.4 84 1.4 SSE 11 15 6 8 - - -
 
Date/Time
EST
Temp
°C
App
Temp
°C
Dew
Point
Rel
Hum
%
Delta-T
°C
Wind Press
QNH
hPa
Press
MSL
hPa
Rain
since 9 am
mm
Dir
 
Spd
km/h
Gust
km/h
Spd
kts
Gust
kts
22/11:30pm 13.5 11.6 10.5 82 1.6 SSE 11 15 6 8 - - -
22/11:00pm 13.8 11.9 10.4 80 1.8 SSE 11 13 6 7 - - -
22/10:30pm 13.9 12.1 10.7 81 1.7 SSE 11 15 6 8 - - -
22/10:00pm 14.2 12.9 11.2 82 1.6 SSE 9 13 5 7 - - -
22/09:30pm 14.3 13.1 11.5 83 1.5 SSE 9 13 5 7 - - -
22/09:00pm 14.3 13.2 11.8 85 1.4 SSE 9 13 5 7 - - -
22/08:30pm 14.3 12.8 11.8 85 1.4 SSE 11 13 6 7 - - -
22/08:00pm 14.5 14.7 11.8 84 1.5 SSE 2 9 1 5 - - -
22/07:30pm 14.9 13.5 12.2 84 1.5 S 11 15 6 8 - - -
22/07:00pm 15.2 14.2 12.3 83 1.6 E 9 13 5 7 - - -
22/06:30pm 15.5 14.4 12.1 80 1.9 SSE 9 13 5 7 - - -
22/06:00pm 16.0 14.9 12.0 77 2.2 SSE 9 11 5 6 - - -
22/05:30pm 16.5 16.4 12.1 75 2.4 E 4 11 2 6 - - -
22/05:00pm 17.0 17.7 12.1 73 2.7 CALM 0 0 0 0 - - -
22/04:30pm 17.3 18.1 12.4 73 2.7 CALM 0 0 0 0 - - -
22/04:00pm 18.1 18.3 10.7 62 4.0 CALM 0 0 0 0 - - -
22/03:30pm 18.0 16.9 10.6 62 4.0 NE 7 11 4 6 - - -
22/03:00pm 18.1 16.6 10.5 61 4.1 NNE 9 11 5 6 - - 0.4
22/02:30pm 18.2 16.2 10.1 59 4.3 N 11 13 6 7 - - -
22/02:00pm 18.6 16.9 9.7 56 4.7 NE 9 15 5 8 - - -
22/01:30pm 18.1 14.6 8.9 55 4.8 NE 17 26 9 14 - - -
22/01:00pm 17.7 13.5 9.8 60 4.2 NE 22 30 12 16 - - -
22/12:30pm 16.3 11.3 9.5 64 3.6 NE 26 35 14 19 - - 0.2
22/12:00pm 14.9 9.6 9.7 71 2.7 NE 28 41 15 22 - - 0.2
22/11:30am 14.5 9.8 9.1 70 2.8 NE 24 32 13 17 - - 0.2
22/11:00am 15.0 11.8 8.5 65 3.3 NE 15 20 8 11 - - 0.0
22/10:30am 16.1 13.0 7.3 56 4.4 NE 13 22 7 12 - - 0.0
22/10:00am 15.6 12.5 7.4 58 4.1 NE 13 17 7 9 - - 0.0
22/09:30am 15.3 11.4 7.1 58 4.1 NE 17 24 9 13 - - 0.0
22/09:00am 15.8 11.4 7.3 57 4.2 ENE 20 28 11 15 - - 0.0
22/08:30am 13.9 9.6 7.2 64 3.3 ENE 19 28 10 15 - - 0.0
22/08:00am 12.6 9.5 7.1 69 2.7 ENE 13 19 7 10 - - 0.0
22/07:30am 12.5 9.7 7.0 69 2.7 SE 11 15 6 8 - - 0.0
22/07:00am 13.0 9.7 6.6 65 3.1 E 13 24 7 13 - - 0.0
22/06:30am 12.8 8.8 6.6 66 3.0 NE 17 24 9 13 - - 0.0
22/06:00am 12.7 8.7 6.7 67 2.9 NE 17 26 9 14 - - 0.0
22/05:30am 12.7 8.4 7.0 68 2.8 NE 19 28 10 15 - - 0.0
22/05:00am 12.6 8.7 7.1 69 2.7 NE 17 26 9 14 - - 0.0
22/04:30am 12.6 8.7 7.1 69 2.7 NE 17 26 9 14 - - 0.0
22/04:00am 12.8 8.3 7.0 68 2.8 NE 20 28 11 15 - - 0.0
22/03:30am 13.2 8.3 6.8 65 3.1 NE 22 33 12 18 - - 0.0
22/03:00am 13.2 8.2 6.5 64 3.2 ENE 22 30 12 16 - - 0.0
22/02:30am 12.9 8.3 6.5 65 3.1 ENE 20 28 11 15 - - 0.0
22/02:00am 13.0 8.6 6.6 65 3.1 ENE 19 28 10 15 - - 0.0
22/01:30am 13.3 8.7 6.6 64 3.2 NE 20 33 11 18 - - 0.0
22/01:00am 13.4 8.8 6.7 64 3.2 ENE 20 28 11 15 - - 0.0
22/12:30am 13.4 9.0 6.7 64 3.2 ENE 19 28 10 15 - - 0.0
22/12:00am 13.4 9.0 6.7 64 3.2 ENE 19 28 10 15 - - 0.0
 
Date/Time
EST
Temp
°C
App
Temp
°C
Dew
Point
Rel
Hum
%
Delta-T
°C
Wind Press
QNH
hPa
Press
MSL
hPa
Rain
since 9 am
mm
Dir
 
Spd
km/h
Gust
km/h
Spd
kts
Gust
kts
21/11:30pm 13.6 9.2 6.7 63 3.3 ENE 19 24 10 13 - - 0.0
21/11:00pm 13.6 9.3 6.9 64 3.3 ENE 19 30 10 16 - - 0.0
21/10:30pm 13.7 9.4 7.2 65 3.2 ENE 19 24 10 13 - - 0.0
21/10:00pm 13.9 9.6 7.2 64 3.3 ENE 19 26 10 14 - - 0.0
21/09:30pm 13.9 9.7 7.4 65 3.2 ENE 19 26 10 14 - - 0.0
21/09:00pm 13.8 9.9 7.1 64 3.3 ENE 17 22 9 12 - - 0.0
21/08:30pm 13.7 9.6 6.1 60 3.6 E 17 24 9 13 - - 0.0
21/08:00pm 13.9 10.1 5.8 58 3.9 ENE 15 19 8 10 - - 0.0

Other Formats:

Comma delimited format used in spreadsheet applications
http://www.bom.gov.au/fwo/IDV60801/IDV60801.95836.axf

JavaScript Object Notation format (JSON) in row-major order
http://www.bom.gov.au/fwo/IDV60801/IDV60801.95836.json